Airfield :
LOGIN :

Register | Disclaimer

   EN    FR    IT 

 










Legend :    VFR   Marginal VFR   IFR   Intensive IFR   Very Intensive IFR
Visi :
Ceiling :
>= 8 km
>= 3000ft
5 to 8 km
1000 to 3000 ft
1500m to 5 km
500 to 1000 ft
800 to 1500m
200 to 500 ft
< 800m
< 200 ft
Symbols :   Thunderstorms  Fog  Heavy snow  Heavy precipitations  Wind > 20 kt
SIGMETs :     Misc.  Thunderstorms  Icing  Turbulence  Mountain Waves  Volcanic Ashes







- Airport Elevation : 220 ft
- IATA code : CWL
- Download approach charts


EGFF - Cardiff Rhoose

CURRENT METAR :
  • 200920Z 27012KT 230V300 9999 VCSH SCT018TCU SCT024 14/10 Q1013

EXPIRED METARs :
  • 200850Z 26011KT 230V290 9999 SCT018 BKN030 15/11 Q1013
  • 200820Z 27012KT 9999 SCT018 SCT022 BKN030 14/11 Q1012
  • 200750Z 27012KT 9999 SCT016 SCT022 14/11 Q1012
  • 200720Z 27010KT 9999 FEW015 SCT035 14/11 Q1012
  • 200650Z 27010KT 9999 FEW015 BKN035 14/11 Q1012

TAF TAF EGFF
Valid from the 20 at 06:00 until the 21 at 06:00 UTC


200454Z 2006/2106 26012KT 9999 FEW015 SCT025
PROB30
TEMPO 2006/2008 8000 SHRA BKN014
TEMPO 2008/2016 7000 SHRA
PROB30
TEMPO 2009/2015 27015G25KT
ATIS : +44 1446 729 319
No reported NOTAMs for that airfield.



MET'MAP, your aeronautical weather chart ! - Copyright ORBIFLY December 2007 - Disclaimer

ORBIFLY MET'MAP TEAM :

Programming & Development : Alexandra Zaïnal
Concept & Development : Baudouin d'Aumeries
Co-Development & Prog : Marc-Olivier Méhu
Technical & hardware support : Manuel Goepfert

Contact : metmap@orbifly.com




SOURCES & CREDITS :

   NOAA